Time;durP1;ratioP1;P1;durP2;ratioP2;P2;SDS_P1;SDS_P2;PMS_P1;PMS_P2;Temp;Humidity;BMP_temperature;BMP_pressure;BME280_temperature;BME280_humidity;BME280_pressure;Samples;Min_cycle;Max_cycle;Signal;HPM_P1;HPM_P2
2022/07/13 00:00:04;;;;;;;3.43;2.57;;;23.30;79.50;;;;;;5067759;28;20202;-81
2022/07/13 00:02:31;;;;;;;4.07;2.57;;;23.30;79.30;;;;;;5072343;28;20199;-81
2022/07/13 00:04:58;;;;;;;6.87;3.20;;;23.30;79.40;;;;;;5060329;28;20237;-81
2022/07/13 00:07:26;;;;;;;5.90;3.20;;;23.20;79.50;;;;;;5078246;28;20190;-81
2022/07/13 00:09:53;;;;;;;3.33;2.93;;;23.20;79.60;;;;;;5076533;28;20205;-81
2022/07/13 00:12:23;;;;;;;4.47;3.10;;;23.10;79.70;;;;;;5068290;28;20206;-80
2022/07/13 00:14:50;;;;;;;5.20;2.80;;;23.10;80.00;;;;;;5073538;28;20244;-80
2022/07/13 00:17:18;;;;;;;8.10;3.47;;;23.10;80.20;;;;;;5075590;28;20200;-81
2022/07/13 00:19:45;;;;;;;6.93;3.60;;;23.10;80.10;;;;;;5058856;28;20202;-81
2022/07/13 00:22:13;;;;;;;3.40;3.10;;;23.00;80.30;;;;;;5074133;28;20629;-82
2022/07/13 00:24:40;;;;;;;4.33;3.23;;;23.00;80.40;;;;;;5074905;28;20237;-82
2022/07/13 00:27:08;;;;;;;7.63;3.23;;;23.00;81.40;;;;;;5072496;28;20602;-81
2022/07/13 00:29:35;;;;;;;10.13;3.33;;;23.00;81.10;;;;;;5059907;28;20198;-81
2022/07/13 00:32:02;;;;;;;5.20;2.77;;;22.90;81.20;;;;;;5056166;28;20198;-81
2022/07/13 00:34:32;;;;;;;4.00;2.63;;;22.90;81.30;;;;;;5077305;28;20199;-81
2022/07/13 00:36:59;;;;;;;7.00;2.67;;;22.90;81.40;;;;;;5083191;28;20206;-81
2022/07/13 00:39:27;;;;;;;5.03;2.90;;;22.90;81.50;;;;;;5076246;28;20208;-80
2022/07/13 00:41:54;;;;;;;3.40;2.60;;;22.90;81.50;;;;;;5102883;28;20242;-81
2022/07/13 00:44:21;;;;;;;6.47;2.80;;;22.90;81.40;;;;;;5077631;28;20293;-80
2022/07/13 00:46:55;;;;;;;3.90;2.47;;;22.90;81.50;;;;;;5058749;28;20241;-80
2022/07/13 00:49:22;;;;;;;5.87;2.50;;;22.80;81.60;;;;;;5072469;28;20194;-80
2022/07/13 00:51:50;;;;;;;5.83;3.20;;;22.80;81.60;;;;;;5062988;28;20607;-81
2022/07/13 00:54:28;;;;;;;4.97;2.40;;;22.80;82.50;;;;;;5062511;28;20206;-80
2022/07/13 00:56:59;;;;;;;7.60;2.13;;;22.80;82.00;;;;;;5055179;28;20293;-80
2022/07/13 00:59:27;;;;;;;4.23;2.30;;;22.80;82.00;;;;;;5063363;28;20262;-81
2022/07/13 01:01:54;;;;;;;5.43;2.63;;;22.80;82.00;;;;;;5077730;28;20234;-81
2022/07/13 01:04:26;;;;;;;3.80;2.60;;;22.80;82.00;;;;;;5066088;28;20195;-82
2022/07/13 01:06:54;;;;;;;4.27;2.30;;;22.80;82.10;;;;;;5095969;28;20198;-82
2022/07/13 01:09:26;;;;;;;4.27;2.50;;;22.80;82.10;;;;;;5073519;28;20197;-81
2022/07/13 01:11:53;;;;;;;3.23;2.13;;;22.80;82.10;;;;;;5076216;28;20301;-81
2022/07/13 01:14:21;;;;;;;5.23;2.30;;;22.80;82.00;;;;;;5073680;28;20194;-81
2022/07/13 01:16:48;;;;;;;6.07;2.57;;;22.90;82.00;;;;;;5074321;28;20224;-81
2022/07/13 01:19:20;;;;;;;7.67;3.40;;;22.80;81.90;;;;;;5060346;28;20210;-81
2022/07/13 01:21:51;;;;;;;4.27;2.90;;;22.90;82.00;;;;;;5071448;28;20220;-81
2022/07/13 01:24:18;;;;;;;4.30;3.00;;;22.80;81.90;;;;;;5076687;28;20542;-81
2022/07/13 01:26:46;;;;;;;5.43;3.33;;;22.80;82.00;;;;;;5077393;28;20233;-82
2022/07/13 01:29:13;;;;;;;3.87;3.07;;;22.80;82.00;;;;;;5078805;28;20205;-81
2022/07/13 01:31:41;;;;;;;6.80;3.53;;;22.80;81.80;;;;;;5055420;28;20301;-81
2022/07/13 01:34:09;;;;;;;6.43;3.60;;;22.80;81.80;;;;;;5075234;28;20210;-81
2022/07/13 01:36:37;;;;;;;4.80;3.13;;;22.70;81.90;;;;;;5072039;28;20206;-82
2022/07/13 01:39:05;;;;;;;5.83;3.20;;;22.70;82.10;;;;;;5052793;28;20308;-81
2022/07/13 01:41:33;;;;;;;6.73;3.60;;;22.60;82.30;;;;;;5079136;28;20210;-83
2022/07/13 01:44:01;;;;;;;7.10;4.07;;;22.60;82.60;;;;;;5062970;28;20203;-81
2022/07/13 01:46:29;;;;;;;8.03;4.03;;;22.50;82.70;;;;;;5068958;28;20201;-81
2022/07/13 01:48:58;;;;;;;4.73;3.53;;;22.50;82.80;;;;;;5062587;28;20264;-82
2022/07/13 01:51:25;;;;;;;7.47;3.53;;;22.50;83.00;;;;;;5079405;28;20210;-81
2022/07/13 01:53:52;;;;;;;6.03;3.50;;;22.50;83.10;;;;;;5061145;28;20534;-83
2022/07/13 01:56:20;;;;;;;11.30;3.83;;;22.50;83.20;;;;;;5054717;28;20276;-81
2022/07/13 01:58:48;;;;;;;13.80;3.53;;;22.40;83.10;;;;;;5076481;28;20198;-82
2022/07/13 02:01:15;;;;;;;9.63;4.50;;;22.40;83.10;;;;;;5064946;28;20217;-82
2022/07/13 02:03:45;;;;;;;8.53;4.07;;;22.50;83.10;;;;;;5078427;28;20204;-82
2022/07/13 02:06:12;;;;;;;5.63;3.57;;;22.50;83.00;;;;;;5075256;28;20229;-81
2022/07/13 02:08:40;;;;;;;6.43;3.50;;;22.50;82.80;;;;;;5060087;28;20260;-82
2022/07/13 02:11:19;;;;;;;6.37;3.57;;;22.50;82.40;;;;;;5059852;28;20201;-82
2022/07/13 02:13:46;;;;;;;6.93;3.47;;;22.40;82.10;;;;;;5077141;28;20212;-82
2022/07/13 02:16:15;;;;;;;7.87;3.60;;;22.40;82.10;;;;;;5077120;28;20278;-82
2022/07/13 02:18:43;;;;;;;10.17;3.87;;;22.30;82.30;;;;;;5079298;28;20217;-82
2022/07/13 02:21:11;;;;;;;8.97;3.60;;;22.30;82.50;;;;;;5070740;28;20229;-82
2022/07/13 02:23:38;;;;;;;7.97;4.27;;;22.20;82.60;;;;;;5076207;28;20194;-82
2022/07/13 02:26:06;;;;;;;5.43;3.80;;;22.20;82.90;;;;;;5056846;28;20222;-82
2022/07/13 02:28:33;;;;;;;6.67;4.03;;;22.10;83.10;;;;;;5077571;28;20189;-81
2022/07/13 02:31:02;;;;;;;7.17;4.00;;;22.10;83.30;;;;;;5069687;28;20671;-82
2022/07/13 02:33:29;;;;;;;6.53;3.57;;;22.10;83.30;;;;;;5072161;28;20611;-81
2022/07/13 02:35:57;;;;;;;5.43;3.33;;;22.00;82.80;;;;;;5065316;28;20206;-82
2022/07/13 02:38:24;;;;;;;7.40;3.63;;;21.90;82.30;;;;;;5073476;28;20272;-81
2022/07/13 02:40:53;;;;;;;6.77;4.37;;;22.00;82.40;;;;;;5073850;28;20245;-82
2022/07/13 02:43:20;;;;;;;8.87;4.13;;;21.90;82.70;;;;;;5053616;28;20706;-83
2022/07/13 02:45:47;;;;;;;9.47;4.90;;;21.90;83.10;;;;;;5072310;28;20220;-82
2022/07/13 02:48:15;;;;;;;8.47;4.93;;;21.80;83.30;;;;;;5086979;28;20862;-82
2022/07/13 02:50:42;;;;;;;7.93;4.90;;;21.80;83.60;;;;;;5063775;28;20232;-83
2022/07/13 02:53:09;;;;;;;5.87;3.70;;;21.80;83.70;;;;;;5077744;28;21083;-82
2022/07/13 02:55:37;;;;;;;6.93;3.90;;;21.70;83.40;;;;;;5076225;28;20546;-82
2022/07/13 02:58:05;;;;;;;4.90;3.67;;;21.70;83.00;;;;;;5071354;28;20223;-81
2022/07/13 03:00:32;;;;;;;3.47;3.17;;;21.60;82.70;;;;;;5071082;28;20297;-82
2022/07/13 03:03:00;;;;;;;8.97;4.53;;;21.60;82.50;;;;;;5058090;28;20677;-82
2022/07/13 03:05:31;;;;;;;10.03;4.13;;;21.50;82.40;;;;;;5069566;28;20217;-82
2022/07/13 03:07:58;;;;;;;5.47;3.60;;;21.50;82.40;;;;;;5062460;28;20743;-82
2022/07/13 03:10:26;;;;;;;6.17;3.90;;;21.50;82.70;;;;;;5071240;28;20637;-82
2022/07/13 03:12:58;;;;;;;4.63;3.83;;;21.40;82.70;;;;;;5071357;28;20216;-82
2022/07/13 03:15:27;;;;;;;4.27;3.53;;;21.40;82.80;;;;;;5043170;28;20214;-82
2022/07/13 03:17:54;;;;;;;3.90;3.60;;;21.40;82.40;;;;;;5067054;28;20669;-82
2022/07/13 03:20:22;;;;;;;4.87;3.07;;;21.30;81.90;;;;;;5071499;28;20654;-83
2022/07/13 03:22:50;;;;;;;6.30;3.77;;;21.30;81.90;;;;;;5069421;28;20232;-82
2022/07/13 03:25:19;;;;;;;7.87;3.43;;;21.30;82.20;;;;;;5073355;28;20287;-82
2022/07/13 03:27:51;;;;;;;9.13;3.77;;;21.30;82.50;;;;;;5052235;28;20204;-83
2022/07/13 03:30:19;;;;;;;4.07;3.33;;;21.20;82.80;;;;;;5056196;28;20201;-82
2022/07/13 03:32:48;;;;;;;5.70;3.47;;;21.20;83.00;;;;;;5047021;28;20258;-83
2022/07/13 03:35:17;;;;;;;4.57;4.17;;;21.20;83.00;;;;;;5063672;28;20212;-82
2022/07/13 03:37:47;;;;;;;5.00;4.00;;;21.20;83.00;;;;;;5077710;28;20202;-83
2022/07/13 03:40:17;;;;;;;5.23;4.00;;;21.20;82.80;;;;;;5082999;28;20193;-82
2022/07/13 03:42:46;;;;;;;8.00;3.90;;;21.20;82.70;;;;;;5072280;28;20609;-82
2022/07/13 03:45:15;;;;;;;4.13;3.60;;;21.20;82.30;;;;;;5068196;28;20207;-82
2022/07/13 03:47:42;;;;;;;6.00;4.10;;;21.20;81.80;;;;;;5073189;28;20216;-82
2022/07/13 03:50:10;;;;;;;10.27;4.00;;;21.20;81.90;;;;;;5071733;28;20190;-83
2022/07/13 03:52:44;;;;;;;4.50;3.93;;;21.30;82.30;;;;;;5068644;28;20210;-82
2022/07/13 03:55:12;;;;;;;6.47;4.43;;;21.30;82.60;;;;;;5076139;28;20254;-81
2022/07/13 03:57:40;;;;;;;5.43;4.13;;;21.20;82.80;;;;;;5050038;28;20587;-83
2022/07/13 04:00:08;;;;;;;4.80;3.80;;;21.30;83.10;;;;;;5072560;28;20346;-82
2022/07/13 04:02:41;;;;;;;8.47;3.60;;;21.30;83.40;;;;;;5080448;28;20275;-82
2022/07/13 04:05:12;;;;;;;5.83;3.70;;;21.30;82.90;;;;;;5081333;28;20232;-82
2022/07/13 04:07:43;;;;;;;6.57;4.23;;;21.30;81.90;;;;;;5073664;28;20265;-82
2022/07/13 04:10:10;;;;;;;6.57;4.33;;;21.20;82.00;;;;;;5075827;28;20214;-82
2022/07/13 04:12:41;;;;;;;8.70;4.17;;;21.20;82.80;;;;;;5082093;28;20202;-82
2022/07/13 04:15:09;;;;;;;5.50;4.50;;;21.20;83.70;;;;;;5082402;28;20198;-83
2022/07/13 04:17:38;;;;;;;4.87;3.60;;;21.30;84.00;;;;;;5080529;28;20296;-83
2022/07/13 04:20:06;;;;;;;7.03;3.53;;;21.30;83.80;;;;;;5072882;28;20300;-83
2022/07/13 04:22:35;;;;;;;8.10;3.93;;;21.30;83.40;;;;;;5080057;28;20244;-83
2022/07/13 04:25:06;;;;;;;7.53;3.50;;;21.40;83.10;;;;;;5079590;28;20253;-81
2022/07/13 04:27:34;;;;;;;12.93;4.67;;;21.30;82.80;;;;;;5080426;28;20201;-82
2022/07/13 04:30:05;;;;;;;6.53;4.40;;;21.40;82.80;;;;;;5079369;28;20202;-83
2022/07/13 04:32:33;;;;;;;5.37;3.93;;;21.40;83.20;;;;;;5064496;28;20206;-82
2022/07/13 04:35:01;;;;;;;8.30;4.37;;;21.50;83.70;;;;;;5072084;28;20205;-82
2022/07/13 04:37:31;;;;;;;9.30;4.20;;;21.50;84.00;;;;;;5064974;28;20651;-82
2022/07/13 04:39:58;;;;;;;6.77;4.30;;;21.60;84.20;;;;;;5060866;28;20221;-82
2022/07/13 04:42:26;;;;;;;5.03;3.70;;;21.70;84.20;;;;;;5075386;28;20210;-82
2022/07/13 04:44:55;;;;;;;5.93;4.37;;;21.80;83.90;;;;;;5082146;28;20633;-82
2022/07/13 04:47:22;;;;;;;5.93;4.10;;;21.80;83.40;;;;;;5066773;28;20265;-82
2022/07/13 04:49:50;;;;;;;4.37;3.97;;;21.90;83.20;;;;;;5080606;28;20309;-82
2022/07/13 04:52:21;;;;;;;4.03;3.73;;;22.00;83.00;;;;;;5050565;28;20198;-82
2022/07/13 04:54:51;;;;;;;5.90;3.70;;;22.10;83.00;;;;;;5085654;28;20259;-84
2022/07/13 04:57:22;;;;;;;6.67;3.47;;;22.10;83.00;;;;;;5073817;28;20615;-83
2022/07/13 04:59:49;;;;;;;7.07;4.30;;;22.20;83.10;;;;;;5077799;28;20536;-82
2022/07/13 05:02:16;;;;;;;6.83;3.83;;;22.20;83.10;;;;;;5057127;28;20210;-83
2022/07/13 05:04:44;;;;;;;6.00;3.73;;;22.30;83.10;;;;;;5072833;28;20202;-82
2022/07/13 05:07:11;;;;;;;6.17;3.70;;;22.40;83.10;;;;;;5078783;28;20225;-82
2022/07/13 05:09:39;;;;;;;5.57;3.53;;;22.50;83.00;;;;;;5073586;28;20185;-81
2022/07/13 05:12:07;;;;;;;4.63;3.70;;;22.60;82.80;;;;;;5074440;28;20206;-81
2022/07/13 05:14:35;;;;;;;3.77;2.80;;;22.60;82.50;;;;;;5076610;28;20209;-83
2022/07/13 05:17:03;;;;;;;5.40;3.43;;;22.70;82.30;;;;;;5068915;28;20214;-82
2022/07/13 05:19:30;;;;;;;4.47;3.43;;;22.70;82.20;;;;;;5077702;28;20202;-82
2022/07/13 05:21:58;;;;;;;9.00;3.70;;;22.80;82.00;;;;;;5078254;28;20607;-81
2022/07/13 05:24:26;;;;;;;3.80;3.50;;;22.90;81.40;;;;;;5078406;28;20335;-83
2022/07/13 05:26:54;;;;;;;4.57;3.63;;;23.10;80.90;;;;;;5063174;28;20209;-82
2022/07/13 05:29:21;;;;;;;6.80;3.23;;;23.20;80.50;;;;;;5079826;28;20221;-81
2022/07/13 05:31:49;;;;;;;3.70;3.30;;;23.30;80.00;;;;;;5079369;28;20214;-81
2022/07/13 05:34:17;;;;;;;5.77;3.10;;;23.50;79.70;;;;;;5079470;28;20599;-82
2022/07/13 05:36:46;;;;;;;4.57;3.50;;;23.60;79.50;;;;;;5076965;28;20530;-81
2022/07/13 05:39:14;;;;;;;4.63;3.97;;;23.80;79.20;;;;;;5069722;28;20213;-81
2022/07/13 05:41:41;;;;;;;3.50;2.77;;;23.90;78.50;;;;;;5061494;28;20249;-81
2022/07/13 05:44:08;;;;;;;5.97;3.20;;;24.00;77.80;;;;;;5079715;28;20210;-81
2022/07/13 05:46:36;;;;;;;3.70;2.57;;;24.00;77.40;;;;;;5073114;28;20207;-81
2022/07/13 05:49:05;;;;;;;3.13;2.87;;;24.00;77.50;;;;;;5062365;28;20522;-82
2022/07/13 05:51:32;;;;;;;4.30;2.43;;;24.00;77.70;;;;;;5074063;28;20310;-82
2022/07/13 05:54:05;;;;;;;5.47;3.13;;;24.10;77.10;;;;;;5081691;28;20309;-81
2022/07/13 05:56:52;;;;;;;4.43;2.73;;;24.20;76.50;;;;;;5075407;28;20228;-81
2022/07/13 05:59:19;;;;;;;3.87;2.57;;;24.20;76.80;;;;;;5078830;28;20224;-80
2022/07/13 06:01:47;;;;;;;4.27;2.80;;;24.30;76.40;;;;;;5078197;28;20209;-81
2022/07/13 06:04:14;;;;;;;3.03;2.07;;;24.40;75.90;;;;;;5068157;28;20218;-80
2022/07/13 06:06:42;;;;;;;2.53;2.43;;;24.50;76.00;;;;;;5075525;28;20647;-82
2022/07/13 06:09:09;;;;;;;4.20;2.60;;;24.60;75.80;;;;;;5079164;28;20304;-80
2022/07/13 06:11:37;;;;;;;3.90;2.47;;;24.70;75.00;;;;;;5061577;28;20300;-82
2022/07/13 06:14:04;;;;;;;4.73;1.90;;;24.80;74.80;;;;;;5077765;28;20220;-82
2022/07/13 06:16:34;;;;;;;4.27;2.43;;;25.00;74.90;;;;;;5071598;28;20529;-81
2022/07/13 06:19:01;;;;;;;3.83;2.27;;;25.10;74.90;;;;;;5074645;28;20202;-81
2022/07/13 06:21:29;;;;;;;3.50;2.10;;;25.30;74.70;;;;;;5076314;28;20226;-81
2022/07/13 06:23:56;;;;;;;7.13;2.20;;;25.40;73.60;;;;;;5068199;28;20216;-81
2022/07/13 06:26:23;;;;;;;3.33;1.90;;;25.60;73.10;;;;;;5076835;28;20253;-82
2022/07/13 06:28:50;;;;;;;3.17;1.80;;;25.70;72.30;;;;;;5062707;28;20280;-81
2022/07/13 06:31:22;;;;;;;4.90;1.80;;;25.80;71.40;;;;;;5072350;28;20673;-82
2022/07/13 06:33:52;;;;;;;5.60;1.80;;;25.90;70.80;;;;;;5075357;28;20198;-81
2022/07/13 06:36:19;;;;;;;2.57;1.63;;;26.10;70.90;;;;;;5078092;28;20202;-81
2022/07/13 06:38:47;;;;;;;1.77;1.60;;;26.30;70.40;;;;;;5079248;28;20244;-81
2022/07/13 06:41:14;;;;;;;4.87;2.40;;;26.50;69.80;;;;;;5074464;28;20644;-81
2022/07/13 06:43:42;;;;;;;3.83;1.80;;;26.60;68.30;;;;;;5088954;28;20234;-82
2022/07/13 06:46:09;;;;;;;3.30;1.93;;;26.80;68.30;;;;;;5091003;28;20194;-82
2022/07/13 06:48:36;;;;;;;2.20;1.77;;;26.90;68.50;;;;;;5071281;28;20216;-82
2022/07/13 06:51:04;;;;;;;5.33;1.93;;;27.00;67.90;;;;;;5065482;28;20224;-83
2022/07/13 06:53:31;;;;;;;3.07;1.50;;;27.20;66.60;;;;;;5078095;28;20212;-82
2022/07/13 06:55:58;;;;;;;3.40;1.70;;;27.30;66.40;;;;;;5069658;28;20299;-81
2022/07/13 06:58:26;;;;;;;3.37;1.43;;;27.30;66.40;;;;;;5077864;28;20229;-82
2022/07/13 07:00:53;;;;;;;2.60;1.37;;;27.30;66.30;;;;;;5075701;28;20592;-81
2022/07/13 07:03:20;;;;;;;2.43;1.30;;;27.50;66.20;;;;;;5073168;28;20316;-82
2022/07/13 07:05:49;;;;;;;1.93;1.40;;;27.70;66.00;;;;;;5074143;28;20205;-81
2022/07/13 07:08:17;;;;;;;4.57;1.40;;;28.00;65.40;;;;;;5068298;28;20266;-82
2022/07/13 07:10:46;;;;;;;9.23;1.53;;;28.20;64.40;;;;;;5072328;28;20220;-82
2022/07/13 07:13:13;;;;;;;2.53;1.50;;;28.50;63.40;;;;;;5067916;28;20209;-83
2022/07/13 07:15:41;;;;;;;3.47;1.50;;;28.70;62.80;;;;;;5069446;28;20684;-82
2022/07/13 07:18:08;;;;;;;3.60;1.37;;;28.80;61.30;;;;;;5071712;28;20230;-83
2022/07/13 07:20:36;;;;;;;2.70;1.07;;;28.90;60.10;;;;;;5054332;28;20251;-83
2022/07/13 07:23:04;;;;;;;4.83;1.30;;;29.00;59.80;;;;;;5075009;28;20244;-83
2022/07/13 07:25:31;;;;;;;27.00;2.73;;;29.10;59.60;;;;;;5073355;28;20222;-84
2022/07/13 07:27:58;;;;;;;3.30;1.43;;;29.30;59.10;;;;;;5075113;28;20355;-83
2022/07/13 07:30:26;;;;;;;3.10;1.10;;;29.40;57.80;;;;;;5061026;28;20202;-83
2022/07/13 07:32:55;;;;;;;1.73;1.23;;;29.50;57.30;;;;;;5080474;28;20201;-84
2022/07/13 07:35:23;;;;;;;2.10;1.00;;;29.60;56.70;;;;;;5075884;28;20201;-83
2022/07/13 07:37:50;;;;;;;3.67;1.57;;;29.70;56.20;;;;;;5082142;28;20205;-84
2022/07/13 07:40:17;;;;;;;2.27;1.07;;;29.80;54.90;;;;;;5082953;28;20276;-84
2022/07/13 07:42:44;;;;;;;3.00;1.10;;;30.00;55.00;;;;;;5078844;28;20664;-83
2022/07/13 07:45:12;;;;;;;2.40;1.10;;;30.10;54.20;;;;;;5073312;28;20203;-83
2022/07/13 07:47:40;;;;;;;4.30;1.83;;;30.20;53.00;;;;;;5088388;28;20673;-85
2022/07/13 07:50:08;;;;;;;1.20;0.93;;;30.30;53.20;;;;;;5069986;28;20630;-83
2022/07/13 07:52:36;;;;;;;2.23;1.37;;;30.40;52.00;;;;;;5081035;28;20541;-84
2022/07/13 07:55:21;;;;;;;2.60;0.93;;;30.60;50.80;;;;;;5076120;28;20210;-83
2022/07/13 07:57:50;;;;;;;1.20;1.00;;;30.70;50.20;;;;;;5077900;28;20201;-83
2022/07/13 08:00:18;;;;;;;4.97;1.10;;;30.90;49.60;;;;;;5064219;28;20256;-83
2022/07/13 08:02:47;;;;;;;0.80;0.80;;;31.00;48.70;;;;;;5081154;28;20665;-83
2022/07/13 08:05:17;;;;;;;3.37;1.20;;;31.20;48.60;;;;;;5079659;28;20238;-84
2022/07/13 08:07:45;;;;;;;3.47;0.97;;;31.30;48.50;;;;;;5069086;28;20209;-82
2022/07/13 08:10:14;;;;;;;3.00;1.20;;;31.40;48.00;;;;;;5074650;28;20190;-83
2022/07/13 08:13:05;;;;;;;2.33;1.07;;;31.50;47.70;;;;;;5074888;28;20213;-83
2022/07/13 08:15:34;;;;;;;3.17;1.00;;;31.70;47.70;;;;;;5076262;28;20193;-83
2022/07/13 08:18:02;;;;;;;3.13;1.20;;;31.80;48.00;;;;;;5086259;28;20202;-84
2022/07/13 08:20:30;;;;;;;1.90;0.90;;;32.00;46.30;;;;;;5071943;28;20277;-83
2022/07/13 08:22:57;;;;;;;1.57;1.10;;;32.10;45.70;;;;;;5078156;28;20375;-83
2022/07/13 08:25:27;;;;;;;3.60;0.90;;;32.10;45.50;;;;;;5081773;28;20631;-83
2022/07/13 08:27:54;;;;;;;1.40;1.03;;;32.20;45.90;;;;;;5058809;28;20201;-83
2022/07/13 08:30:23;;;;;;;1.47;1.20;;;32.30;45.90;;;;;;5080478;28;20197;-83
2022/07/13 08:32:51;;;;;;;2.37;1.13;;;32.30;45.70;;;;;;5082768;28;20213;-84
2022/07/13 08:40:54;;;;;;;1.60;1.00;;;32.50;44.40;;;;;;5080041;28;20208;-84
2022/07/13 08:43:22;;;;;;;1.07;0.97;;;32.60;42.90;;;;;;5062096;28;20245;-83
2022/07/13 08:45:51;;;;;;;1.13;0.90;;;32.70;43.30;;;;;;5079566;28;20233;-83
2022/07/13 08:48:29;;;;;;;0.93;0.93;;;32.70;43.40;;;;;;5051914;28;20208;-82
2022/07/13 08:50:59;;;;;;;1.90;0.70;;;32.70;43.30;;;;;;5071423;28;20202;-83
2022/07/13 08:53:26;;;;;;;2.13;1.00;;;32.80;42.60;;;;;;5055505;28;20199;-82
2022/07/13 08:55:56;;;;;;;3.50;0.87;;;32.90;42.90;;;;;;5075345;28;20233;-83
2022/07/13 08:58:25;;;;;;;2.53;1.00;;;33.00;42.80;;;;;;5084334;28;20283;-82
2022/07/13 09:00:53;;;;;;;2.63;1.13;;;33.10;42.50;;;;;;5069156;28;20198;-82
2022/07/13 09:03:20;;;;;;;3.63;0.83;;;33.30;41.90;;;;;;5077189;28;20252;-82
2022/07/13 09:05:49;;;;;;;2.07;1.00;;;33.30;41.80;;;;;;5061575;28;20213;-83
2022/07/13 09:08:20;;;;;;;2.33;0.87;;;33.50;41.70;;;;;;5073724;28;20686;-83
2022/07/13 09:10:56;;;;;;;1.67;1.10;;;33.50;40.60;;;;;;5078104;28;20228;-83
2022/07/13 09:13:41;;;;;;;1.03;0.80;;;33.50;40.40;;;;;;5058856;28;20198;-83
2022/07/13 09:16:21;;;;;;;0.97;0.90;;;33.40;40.70;;;;;;5078776;28;20719;-82
2022/07/13 09:18:56;;;;;;;2.60;0.80;;;33.40;41.10;;;;;;5073541;28;20205;-83
2022/07/13 09:21:33;;;;;;;0.70;0.70;;;33.50;40.90;;;;;;5063363;28;20232;-82
2022/07/13 09:24:03;;;;;;;1.07;0.80;;;33.60;41.10;;;;;;5074909;28;20267;-83
2022/07/13 09:26:52;;;;;;;1.63;1.10;;;33.60;40.70;;;;;;5045738;28;20233;-81
2022/07/13 09:29:21;;;;;;;2.97;0.87;;;33.70;41.10;;;;;;5078372;28;20226;-81
2022/07/13 09:31:50;;;;;;;1.83;0.97;;;33.70;41.30;;;;;;5060340;28;20242;-82
2022/07/13 09:34:19;;;;;;;2.03;1.03;;;33.80;40.90;;;;;;5076189;28;20210;-82
2022/07/13 09:37:10;;;;;;;4.63;1.23;;;33.90;41.30;;;;;;5069148;28;20282;-84
2022/07/13 09:39:58;;;;;;;2.43;1.00;;;33.90;40.70;;;;;;5077526;28;20202;-82
2022/07/13 09:42:27;;;;;;;1.23;1.07;;;33.80;39.60;;;;;;5075169;28;20225;-82
2022/07/13 09:47:48;;;;;;;2.67;1.27;;;33.60;40.40;;;;;;5073446;28;20214;-82
2022/07/13 09:50:19;;;;;;;1.20;1.10;;;33.50;41.50;;;;;;5051314;28;20614;-83
2022/07/13 09:52:48;;;;;;;1.87;1.20;;;33.60;41.90;;;;;;5075879;28;20221;-82
2022/07/13 09:55:41;;;;;;;2.77;0.97;;;33.70;41.30;;;;;;5065773;28;20547;-82
2022/07/13 09:58:10;;;;;;;2.87;1.30;;;33.80;41.70;;;;;;5075371;28;20209;-82
2022/07/13 10:00:37;;;;;;;1.20;1.10;;;33.90;41.60;;;;;;5070492;28;20201;-83
2022/07/13 10:03:06;;;;;;;1.97;0.93;;;34.00;41.50;;;;;;5073011;28;20214;-82
2022/07/13 10:05:35;;;;;;;2.33;1.20;;;33.90;41.40;;;;;;5056234;28;20198;-82
2022/07/13 10:08:05;;;;;;;1.63;0.90;;;34.00;41.90;;;;;;5074283;28;20546;-83
2022/07/13 10:10:36;;;;;;;1.90;1.00;;;34.00;40.10;;;;;;5071156;28;20198;-83
2022/07/13 10:13:05;;;;;;;1.47;0.97;;;33.90;39.90;;;;;;5066036;28;20194;-83
2022/07/13 10:15:34;;;;;;;2.23;1.20;;;34.00;40.20;;;;;;5062649;28;20202;-82
2022/07/13 10:18:03;;;;;;;1.30;0.90;;;34.00;40.30;;;;;;5072257;28;20263;-83
2022/07/13 10:20:37;;;;;;;1.83;1.10;;;34.20;39.80;;;;;;5068413;28;20547;-83
2022/07/13 10:23:05;;;;;;;2.10;1.10;;;34.30;39.90;;;;;;5078800;28;20633;-83
2022/07/13 10:25:43;;;;;;;2.23;1.23;;;34.40;40.10;;;;;;5075811;28;20234;-82
2022/07/13 10:28:14;;;;;;;2.43;0.90;;;34.60;39.60;;;;;;5062548;28;20660;-82
2022/07/13 10:30:42;;;;;;;1.83;1.20;;;34.70;38.80;;;;;;5075819;28;20210;-82
2022/07/13 10:33:36;;;;;;;1.23;1.10;;;34.80;37.60;;;;;;5054290;28;20205;-83
2022/07/13 10:36:04;;;;;;;1.33;1.10;;;34.90;36.40;;;;;;5070728;28;20237;-83
2022/07/13 10:38:34;;;;;;;1.47;1.37;;;35.00;37.10;;;;;;5075760;28;20278;-81
2022/07/13 10:41:23;;;;;;;1.63;1.20;;;35.00;37.70;;;;;;5072997;28;20262;-82
2022/07/13 10:44:06;;;;;;;3.33;1.23;;;35.10;38.60;;;;;;5055919;28;20311;-83
2022/07/13 10:46:50;;;;;;;4.67;1.30;;;35.10;38.40;;;;;;5074174;28;20221;-82
2022/07/13 10:49:47;;;;;;;1.10;1.00;;;35.20;38.80;;;;;;5070025;28;20764;-82
2022/07/13 10:57:39;;;;;;;2.77;1.30;;;34.90;38.30;;;;;;5072960;28;20638;-82
2022/07/13 11:00:31;;;;;;;3.27;1.10;;;34.90;38.70;;;;;;5060557;28;20551;-82
2022/07/13 11:03:06;;;;;;;1.73;1.00;;;35.00;37.70;;;;;;5070672;28;20198;-83
2022/07/13 11:05:35;;;;;;;1.27;1.10;;;35.00;37.80;;;;;;5069773;28;20230;-83
2022/07/13 11:08:16;;;;;;;1.07;0.97;;;34.90;37.00;;;;;;5058379;28;20532;-82
2022/07/13 11:10:43;;;;;;;2.30;1.07;;;34.80;37.60;;;;;;5047625;28;20212;-82
2022/07/13 11:13:14;;;;;;;0.97;0.83;;;34.70;37.50;;;;;;5057948;28;20229;-83
2022/07/13 11:15:55;;;;;;;1.23;1.10;;;34.80;38.40;;;;;;5046848;28;20202;-81
2022/07/13 11:18:22;;;;;;;1.30;1.20;;;34.90;39.10;;;;;;5054899;28;20225;-82
2022/07/13 11:21:22;;;;;;;1.20;1.10;;;35.00;39.00;;;;;;5074409;28;20223;-82
2022/07/13 11:26:51;;;;;;;1.43;1.13;;;35.30;38.10;;;;;;5071962;28;20266;-82
2022/07/13 11:29:44;;;;;;;1.13;1.03;;;35.50;37.50;;;;;;5058213;28;20760;-82
2022/07/13 11:32:11;;;;;;;1.17;1.07;;;35.60;38.30;;;;;;5057772;28;20668;-82
2022/07/13 11:34:39;;;;;;;1.37;1.07;;;35.60;37.40;;;;;;5071495;28;20220;-82
2022/07/13 11:37:06;;;;;;;2.87;1.20;;;35.50;37.60;;;;;;5072839;28;20210;-82
2022/07/13 11:39:35;;;;;;;3.13;1.33;;;35.20;37.70;;;;;;5071953;28;20206;-83
2022/07/13 11:42:07;;;;;;;1.73;1.00;;;35.00;37.70;;;;;;5072624;28;20709;-82
2022/07/13 11:44:36;;;;;;;2.70;1.00;;;34.90;37.60;;;;;;5069838;28;20331;-83
2022/07/13 11:47:06;;;;;;;3.07;1.70;;;34.70;38.20;;;;;;5064564;28;20630;-83
2022/07/13 11:49:43;;;;;;;6.27;1.10;;;34.40;38.60;;;;;;5070954;28;21127;-82
2022/07/13 11:52:28;;;;;;;2.50;1.00;;;34.20;38.60;;;;;;5079392;28;20194;-83
2022/07/13 11:55:03;;;;;;;1.10;1.00;;;34.10;39.70;;;;;;5073063;28;20523;-82
2022/07/13 11:57:32;;;;;;;0.90;0.90;;;34.10;39.40;;;;;;5055496;28;20201;-82
2022/07/13 12:00:09;;;;;;;1.80;1.00;;;34.30;37.30;;;;;;5047505;28;20710;-82
2022/07/13 12:02:39;;;;;;;2.77;1.50;;;34.30;38.20;;;;;;5071416;28;20201;-82
2022/07/13 12:05:08;;;;;;;1.77;1.40;;;34.20;38.20;;;;;;5073962;28;20252;-81
2022/07/13 12:07:42;;;;;;;2.20;1.40;;;34.10;38.10;;;;;;5057854;28;20645;-82
2022/07/13 12:10:10;;;;;;;2.10;1.30;;;34.10;38.10;;;;;;5073839;28;20269;-82
2022/07/13 12:12:41;;;;;;;1.60;1.07;;;34.10;38.10;;;;;;5071807;28;20220;-83
2022/07/13 12:15:09;;;;;;;1.50;1.10;;;34.20;39.00;;;;;;5072695;28;20205;-82
2022/07/13 12:17:53;;;;;;;1.97;1.00;;;34.30;37.90;;;;;;5071996;28;20310;-81
2022/07/13 12:20:22;;;;;;;1.50;0.77;;;34.50;38.50;;;;;;5090293;28;20508;-83
2022/07/13 12:22:57;;;;;;;3.10;1.63;;;34.60;38.10;;;;;;5074726;28;20205;-82
2022/07/13 12:25:33;;;;;;;2.03;1.13;;;34.60;37.30;;;;;;5072628;28;20249;-84
2022/07/13 12:28:04;;;;;;;1.20;1.10;;;34.80;37.10;;;;;;5068003;28;20648;-81
2022/07/13 12:30:33;;;;;;;3.10;1.47;;;34.80;36.10;;;;;;5072332;28;20208;-82
2022/07/13 12:33:11;;;;;;;1.43;1.33;;;34.80;36.60;;;;;;5077961;28;20206;-83
2022/07/13 12:35:40;;;;;;;1.27;1.00;;;34.70;37.40;;;;;;5071170;28;20228;-82
2022/07/13 12:38:10;;;;;;;2.00;0.90;;;34.80;36.40;;;;;;5077694;28;20553;-83
2022/07/13 12:40:49;;;;;;;2.53;0.90;;;34.90;35.20;;;;;;5062576;28;20212;-83
2022/07/13 12:43:28;;;;;;;1.17;1.00;;;34.90;36.10;;;;;;5075681;28;20432;-82
2022/07/13 12:46:01;;;;;;;1.20;1.00;;;34.90;36.80;;;;;;5068960;28;20577;-82
2022/07/13 12:48:30;;;;;;;1.00;0.90;;;34.80;35.00;;;;;;5073515;28;20585;-82
2022/07/13 12:51:08;;;;;;;0.80;0.80;;;34.70;35.00;;;;;;5074526;28;20226;-83
2022/07/13 12:53:59;;;;;;;2.03;1.20;;;34.60;34.80;;;;;;5071593;28;20209;-82
2022/07/13 12:56:27;;;;;;;0.93;0.80;;;34.60;34.90;;;;;;5059911;28;20225;-82
2022/07/13 12:58:58;;;;;;;3.87;0.90;;;34.60;33.00;;;;;;5075465;28;20702;-83
2022/07/13 13:01:28;;;;;;;2.07;1.00;;;34.50;33.40;;;;;;5076640;28;20281;-82
2022/07/13 13:04:01;;;;;;;0.90;0.90;;;34.60;34.00;;;;;;5074079;28;20213;-82
2022/07/13 13:06:33;;;;;;;1.57;1.00;;;34.60;33.00;;;;;;5079619;28;20193;-81
2022/07/13 13:09:09;;;;;;;0.83;0.80;;;34.60;33.50;;;;;;5078643;28;20233;-82
2022/07/13 13:11:38;;;;;;;2.60;1.10;;;34.70;33.50;;;;;;5063157;28;20205;-82
2022/07/13 13:14:06;;;;;;;2.43;0.90;;;34.80;33.60;;;;;;5073665;28;20256;-82
2022/07/13 13:16:34;;;;;;;1.93;1.00;;;34.80;33.90;;;;;;5084215;28;20289;-82